sensor_id;sensor_type;location;lat;lon;timestamp;P1;durP1;ratioP1;P2;durP2;ratioP2
16504;SDS011;8365;51.030;4.696;2022-08-01T00:01:12;3.08;;;2.45;;
16504;SDS011;8365;51.030;4.696;2022-08-01T00:03:43;3.65;;;2.90;;
16504;SDS011;8365;51.030;4.696;2022-08-01T00:06:13;4.55;;;2.80;;
16504;SDS011;8365;51.030;4.696;2022-08-01T00:08:44;4.95;;;2.72;;
16504;SDS011;8365;51.030;4.696;2022-08-01T00:11:14;3.28;;;3.00;;
16504;SDS011;8365;51.030;4.696;2022-08-01T00:13:45;5.55;;;3.10;;
16504;SDS011;8365;51.030;4.696;2022-08-01T00:16:15;5.10;;;3.40;;
16504;SDS011;8365;51.030;4.696;2022-08-01T00:18:46;3.42;;;2.88;;
16504;SDS011;8365;51.030;4.696;2022-08-01T00:21:17;4.95;;;3.67;;
16504;SDS011;8365;51.030;4.696;2022-08-01T00:23:47;4.45;;;3.72;;
16504;SDS011;8365;51.030;4.696;2022-08-01T00:26:18;7.03;;;3.63;;
16504;SDS011;8365;51.030;4.696;2022-08-01T00:28:49;8.02;;;4.38;;
16504;SDS011;8365;51.030;4.696;2022-08-01T00:31:19;6.20;;;4.20;;
16504;SDS011;8365;51.030;4.696;2022-08-01T00:33:50;5.28;;;4.05;;
16504;SDS011;8365;51.030;4.696;2022-08-01T00:36:20;6.10;;;4.05;;
16504;SDS011;8365;51.030;4.696;2022-08-01T00:38:51;5.57;;;4.30;;
16504;SDS011;8365;51.030;4.696;2022-08-01T00:41:21;5.50;;;4.07;;
16504;SDS011;8365;51.030;4.696;2022-08-01T00:43:51;4.68;;;4.20;;
16504;SDS011;8365;51.030;4.696;2022-08-01T00:46:22;5.60;;;4.20;;
16504;SDS011;8365;51.030;4.696;2022-08-01T00:48:53;4.88;;;3.80;;
16504;SDS011;8365;51.030;4.696;2022-08-01T00:51:25;7.75;;;4.82;;
16504;SDS011;8365;51.030;4.696;2022-08-01T00:53:56;7.20;;;4.85;;
16504;SDS011;8365;51.030;4.696;2022-08-01T00:56:27;5.72;;;4.80;;
16504;SDS011;8365;51.030;4.696;2022-08-01T00:58:58;7.13;;;5.20;;
16504;SDS011;8365;51.030;4.696;2022-08-01T01:01:28;7.05;;;5.68;;
16504;SDS011;8365;51.030;4.696;2022-08-01T01:03:59;6.10;;;5.10;;
16504;SDS011;8365;51.030;4.696;2022-08-01T01:12:28;7.30;;;5.60;;
16504;SDS011;8365;51.030;4.696;2022-08-01T01:15:11;9.35;;;6.05;;
16504;SDS011;8365;51.030;4.696;2022-08-01T01:17:57;7.85;;;6.03;;
16504;SDS011;8365;51.030;4.696;2022-08-01T01:20:42;8.95;;;5.88;;
16504;SDS011;8365;51.030;4.696;2022-08-01T01:29:23;7.22;;;6.47;;
16504;SDS011;8365;51.030;4.696;2022-08-01T01:32:09;7.00;;;5.97;;
16504;SDS011;8365;51.030;4.696;2022-08-01T01:34:46;7.10;;;5.75;;
16504;SDS011;8365;51.030;4.696;2022-08-01T01:37:20;9.57;;;6.63;;
16504;SDS011;8365;51.030;4.696;2022-08-01T01:39:55;7.35;;;6.60;;
16504;SDS011;8365;51.030;4.696;2022-08-01T01:42:27;9.23;;;6.20;;
16504;SDS011;8365;51.030;4.696;2022-08-01T01:44:58;9.90;;;6.72;;
16504;SDS011;8365;51.030;4.696;2022-08-01T01:47:32;9.15;;;6.53;;
16504;SDS011;8365;51.030;4.696;2022-08-01T01:50:04;7.88;;;6.30;;
16504;SDS011;8365;51.030;4.696;2022-08-01T01:52:36;8.20;;;6.68;;
16504;SDS011;8365;51.030;4.696;2022-08-01T01:55:12;7.90;;;6.70;;
16504;SDS011;8365;51.030;4.696;2022-08-01T01:57:45;7.55;;;6.63;;
16504;SDS011;8365;51.030;4.696;2022-08-01T02:00:16;8.05;;;7.05;;
16504;SDS011;8365;51.030;4.696;2022-08-01T02:02:47;7.57;;;6.88;;
16504;SDS011;8365;51.030;4.696;2022-08-01T02:05:19;11.30;;;6.90;;
16504;SDS011;8365;51.030;4.696;2022-08-01T02:07:53;9.30;;;6.97;;
16504;SDS011;8365;51.030;4.696;2022-08-01T02:10:25;7.82;;;6.68;;
16504;SDS011;8365;51.030;4.696;2022-08-01T02:13:00;8.13;;;7.35;;
16504;SDS011;8365;51.030;4.696;2022-08-01T02:15:34;10.00;;;8.30;;
16504;SDS011;8365;51.030;4.696;2022-08-01T02:18:09;10.93;;;8.02;;
16504;SDS011;8365;51.030;4.696;2022-08-01T02:20:42;10.23;;;8.45;;
16504;SDS011;8365;51.030;4.696;2022-08-01T02:23:13;10.18;;;8.48;;
16504;SDS011;8365;51.030;4.696;2022-08-01T02:28:25;12.18;;;8.93;;
16504;SDS011;8365;51.030;4.696;2022-08-01T02:31:02;10.07;;;9.07;;
16504;SDS011;8365;51.030;4.696;2022-08-01T02:33:37;11.32;;;9.20;;
16504;SDS011;8365;51.030;4.696;2022-08-01T02:36:11;9.93;;;8.63;;
16504;SDS011;8365;51.030;4.696;2022-08-01T02:38:45;9.52;;;8.60;;
16504;SDS011;8365;51.030;4.696;2022-08-01T02:41:19;9.82;;;8.70;;
16504;SDS011;8365;51.030;4.696;2022-08-01T02:43:52;11.32;;;9.40;;
16504;SDS011;8365;51.030;4.696;2022-08-01T02:46:29;12.00;;;9.32;;
16504;SDS011;8365;51.030;4.696;2022-08-01T02:49:06;10.38;;;9.27;;
16504;SDS011;8365;51.030;4.696;2022-08-01T02:51:39;12.07;;;9.60;;
16504;SDS011;8365;51.030;4.696;2022-08-01T02:54:13;11.52;;;9.77;;
16504;SDS011;8365;51.030;4.696;2022-08-01T02:56:48;10.57;;;8.98;;
16504;SDS011;8365;51.030;4.696;2022-08-01T02:59:21;11.65;;;9.95;;
16504;SDS011;8365;51.030;4.696;2022-08-01T03:01:55;12.25;;;10.30;;
16504;SDS011;8365;51.030;4.696;2022-08-01T03:04:27;14.65;;;10.20;;
16504;SDS011;8365;51.030;4.696;2022-08-01T03:06:58;15.27;;;11.10;;
16504;SDS011;8365;51.030;4.696;2022-08-01T03:09:34;13.55;;;10.68;;
16504;SDS011;8365;51.030;4.696;2022-08-01T03:12:09;15.52;;;11.38;;
16504;SDS011;8365;51.030;4.696;2022-08-01T03:14:44;16.30;;;11.40;;
16504;SDS011;8365;51.030;4.696;2022-08-01T03:17:16;16.45;;;12.25;;
16504;SDS011;8365;51.030;4.696;2022-08-01T03:19:49;21.20;;;13.88;;
16504;SDS011;8365;51.030;4.696;2022-08-01T03:22:21;16.88;;;14.25;;
16504;SDS011;8365;51.030;4.696;2022-08-01T03:24:54;14.95;;;13.18;;
16504;SDS011;8365;51.030;4.696;2022-08-01T03:27:27;23.52;;;19.38;;
16504;SDS011;8365;51.030;4.696;2022-08-01T03:29:59;24.40;;;19.95;;
16504;SDS011;8365;51.030;4.696;2022-08-01T03:32:33;28.20;;;22.33;;
16504;SDS011;8365;51.030;4.696;2022-08-01T03:35:04;27.20;;;21.08;;
16504;SDS011;8365;51.030;4.696;2022-08-01T03:37:42;26.02;;;21.45;;
16504;SDS011;8365;51.030;4.696;2022-08-01T03:42:56;33.88;;;23.00;;
16504;SDS011;8365;51.030;4.696;2022-08-01T03:45:36;32.40;;;24.38;;
16504;SDS011;8365;51.030;4.696;2022-08-01T03:48:13;31.67;;;23.05;;
16504;SDS011;8365;51.030;4.696;2022-08-01T03:50:46;38.28;;;25.52;;
16504;SDS011;8365;51.030;4.696;2022-08-01T03:53:20;35.67;;;24.27;;
16504;SDS011;8365;51.030;4.696;2022-08-01T03:55:54;34.03;;;23.40;;
16504;SDS011;8365;51.030;4.696;2022-08-01T03:58:27;32.25;;;25.30;;
16504;SDS011;8365;51.030;4.696;2022-08-01T04:00:59;32.30;;;22.77;;
16504;SDS011;8365;51.030;4.696;2022-08-01T04:03:30;35.05;;;25.40;;
16504;SDS011;8365;51.030;4.696;2022-08-01T04:06:05;31.13;;;24.05;;
16504;SDS011;8365;51.030;4.696;2022-08-01T04:08:38;29.63;;;23.08;;
16504;SDS011;8365;51.030;4.696;2022-08-01T04:11:10;29.40;;;23.88;;
16504;SDS011;8365;51.030;4.696;2022-08-01T04:13:40;33.42;;;23.45;;
16504;SDS011;8365;51.030;4.696;2022-08-01T04:16:11;31.77;;;23.80;;
16504;SDS011;8365;51.030;4.696;2022-08-01T04:18:41;26.83;;;21.98;;
16504;SDS011;8365;51.030;4.696;2022-08-01T04:21:12;29.58;;;22.92;;
16504;SDS011;8365;51.030;4.696;2022-08-01T04:23:43;34.17;;;23.80;;
16504;SDS011;8365;51.030;4.696;2022-08-01T04:26:16;32.85;;;23.48;;
16504;SDS011;8365;51.030;4.696;2022-08-01T04:28:48;27.17;;;21.38;;
16504;SDS011;8365;51.030;4.696;2022-08-01T04:31:20;27.83;;;21.30;;
16504;SDS011;8365;51.030;4.696;2022-08-01T04:33:55;25.77;;;21.20;;
16504;SDS011;8365;51.030;4.696;2022-08-01T04:36:28;24.60;;;20.25;;
16504;SDS011;8365;51.030;4.696;2022-08-01T04:39:00;26.20;;;20.05;;
16504;SDS011;8365;51.030;4.696;2022-08-01T04:41:32;27.63;;;20.40;;
16504;SDS011;8365;51.030;4.696;2022-08-01T04:44:03;24.40;;;18.42;;
16504;SDS011;8365;51.030;4.696;2022-08-01T04:46:34;25.02;;;19.52;;
16504;SDS011;8365;51.030;4.696;2022-08-01T04:49:07;23.38;;;18.98;;
16504;SDS011;8365;51.030;4.696;2022-08-01T04:52:00;27.35;;;17.52;;
16504;SDS011;8365;51.030;4.696;2022-08-01T04:54:30;23.98;;;17.33;;
16504;SDS011;8365;51.030;4.696;2022-08-01T04:57:04;22.13;;;17.67;;
16504;SDS011;8365;51.030;4.696;2022-08-01T04:59:36;22.00;;;17.15;;
16504;SDS011;8365;51.030;4.696;2022-08-01T05:02:16;23.15;;;16.67;;
16504;SDS011;8365;51.030;4.696;2022-08-01T05:04:48;24.85;;;16.52;;
16504;SDS011;8365;51.030;4.696;2022-08-01T05:07:19;26.13;;;15.07;;
16504;SDS011;8365;51.030;4.696;2022-08-01T05:09:49;24.52;;;17.05;;
16504;SDS011;8365;51.030;4.696;2022-08-01T05:12:20;21.67;;;15.40;;
16504;SDS011;8365;51.030;4.696;2022-08-01T05:14:50;20.73;;;15.13;;
16504;SDS011;8365;51.030;4.696;2022-08-01T05:17:21;19.50;;;15.27;;
16504;SDS011;8365;51.030;4.696;2022-08-01T05:19:51;18.85;;;14.27;;
16504;SDS011;8365;51.030;4.696;2022-08-01T05:22:22;20.98;;;14.50;;
16504;SDS011;8365;51.030;4.696;2022-08-01T05:24:54;17.33;;;14.10;;
16504;SDS011;8365;51.030;4.696;2022-08-01T05:27:25;19.50;;;13.38;;
16504;SDS011;8365;51.030;4.696;2022-08-01T05:29:56;17.85;;;12.45;;
16504;SDS011;8365;51.030;4.696;2022-08-01T05:32:27;16.58;;;11.98;;
16504;SDS011;8365;51.030;4.696;2022-08-01T05:34:59;16.20;;;11.82;;
16504;SDS011;8365;51.030;4.696;2022-08-01T05:37:31;15.93;;;12.57;;
16504;SDS011;8365;51.030;4.696;2022-08-01T05:40:02;15.85;;;11.73;;
16504;SDS011;8365;51.030;4.696;2022-08-01T05:42:33;16.13;;;11.15;;
16504;SDS011;8365;51.030;4.696;2022-08-01T05:45:05;13.85;;;10.75;;
16504;SDS011;8365;51.030;4.696;2022-08-01T05:47:36;13.73;;;11.15;;
16504;SDS011;8365;51.030;4.696;2022-08-01T05:50:07;11.57;;;10.38;;
16504;SDS011;8365;51.030;4.696;2022-08-01T05:52:38;16.35;;;10.82;;
16504;SDS011;8365;51.030;4.696;2022-08-01T05:55:10;13.57;;;10.23;;
16504;SDS011;8365;51.030;4.696;2022-08-01T05:57:40;12.77;;;9.65;;
16504;SDS011;8365;51.030;4.696;2022-08-01T06:00:11;12.27;;;9.27;;
16504;SDS011;8365;51.030;4.696;2022-08-01T06:02:42;15.70;;;9.75;;
16504;SDS011;8365;51.030;4.696;2022-08-01T06:05:15;12.15;;;8.57;;
16504;SDS011;8365;51.030;4.696;2022-08-01T06:07:46;10.05;;;8.48;;
16504;SDS011;8365;51.030;4.696;2022-08-01T06:10:16;11.85;;;8.63;;
16504;SDS011;8365;51.030;4.696;2022-08-01T06:12:47;10.77;;;8.10;;
16504;SDS011;8365;51.030;4.696;2022-08-01T06:15:17;11.00;;;7.82;;
16504;SDS011;8365;51.030;4.696;2022-08-01T06:17:48;8.18;;;7.10;;
16504;SDS011;8365;51.030;4.696;2022-08-01T06:20:18;10.60;;;9.07;;
16504;SDS011;8365;51.030;4.696;2022-08-01T06:22:51;10.30;;;7.72;;
16504;SDS011;8365;51.030;4.696;2022-08-01T06:25:21;8.50;;;7.43;;
16504;SDS011;8365;51.030;4.696;2022-08-01T06:27:52;10.45;;;7.63;;
16504;SDS011;8365;51.030;4.696;2022-08-01T06:30:23;8.15;;;6.97;;
16504;SDS011;8365;51.030;4.696;2022-08-01T06:32:53;10.18;;;7.32;;
16504;SDS011;8365;51.030;4.696;2022-08-01T06:35:26;8.65;;;6.90;;
16504;SDS011;8365;51.030;4.696;2022-08-01T06:37:58;8.82;;;7.10;;
16504;SDS011;8365;51.030;4.696;2022-08-01T06:40:28;7.90;;;7.07;;
16504;SDS011;8365;51.030;4.696;2022-08-01T06:42:59;6.63;;;6.00;;
16504;SDS011;8365;51.030;4.696;2022-08-01T06:45:29;6.57;;;5.88;;
16504;SDS011;8365;51.030;4.696;2022-08-01T06:48:00;6.88;;;5.57;;
16504;SDS011;8365;51.030;4.696;2022-08-01T06:50:31;6.35;;;5.10;;
16504;SDS011;8365;51.030;4.696;2022-08-01T06:53:02;5.07;;;4.47;;
16504;SDS011;8365;51.030;4.696;2022-08-01T06:55:34;4.85;;;4.43;;
16504;SDS011;8365;51.030;4.696;2022-08-01T06:58:05;8.23;;;5.68;;
16504;SDS011;8365;51.030;4.696;2022-08-01T07:00:35;4.80;;;4.03;;
16504;SDS011;8365;51.030;4.696;2022-08-01T07:03:06;5.30;;;4.20;;
16504;SDS011;8365;51.030;4.696;2022-08-01T07:05:37;4.25;;;3.85;;
16504;SDS011;8365;51.030;4.696;2022-08-01T07:08:08;6.68;;;4.00;;
16504;SDS011;8365;51.030;4.696;2022-08-01T07:10:38;5.30;;;3.92;;
16504;SDS011;8365;51.030;4.696;2022-08-01T07:13:08;7.30;;;4.38;;
16504;SDS011;8365;51.030;4.696;2022-08-01T07:15:39;5.25;;;4.38;;
16504;SDS011;8365;51.030;4.696;2022-08-01T07:18:09;3.70;;;3.35;;
16504;SDS011;8365;51.030;4.696;2022-08-01T07:20:40;3.97;;;3.10;;
16504;SDS011;8365;51.030;4.696;2022-08-01T07:23:10;2.20;;;2.00;;
16504;SDS011;8365;51.030;4.696;2022-08-01T07:25:41;2.30;;;1.98;;
16504;SDS011;8365;51.030;4.696;2022-08-01T07:28:12;3.80;;;2.20;;
16504;SDS011;8365;51.030;4.696;2022-08-01T07:30:42;2.25;;;1.85;;
16504;SDS011;8365;51.030;4.696;2022-08-01T07:33:14;5.13;;;2.13;;
16504;SDS011;8365;51.030;4.696;2022-08-01T07:35:45;2.33;;;2.13;;
16504;SDS011;8365;51.030;4.696;2022-08-01T07:38:17;2.95;;;2.50;;
16504;SDS011;8365;51.030;4.696;2022-08-01T07:40:48;2.25;;;2.05;;
16504;SDS011;8365;51.030;4.696;2022-08-01T07:43:19;2.30;;;2.20;;
16504;SDS011;8365;51.030;4.696;2022-08-01T07:45:49;2.63;;;1.92;;
16504;SDS011;8365;51.030;4.696;2022-08-01T07:48:19;3.95;;;2.35;;
16504;SDS011;8365;51.030;4.696;2022-08-01T07:50:53;3.58;;;2.55;;
16504;SDS011;8365;51.030;4.696;2022-08-01T07:53:24;4.50;;;2.45;;
16504;SDS011;8365;51.030;4.696;2022-08-01T07:55:55;2.70;;;2.50;;
16504;SDS011;8365;51.030;4.696;2022-08-01T07:58:26;2.70;;;2.50;;
16504;SDS011;8365;51.030;4.696;2022-08-01T08:00:56;3.05;;;2.40;;
16504;SDS011;8365;51.030;4.696;2022-08-01T08:03:26;3.75;;;3.30;;
16504;SDS011;8365;51.030;4.696;2022-08-01T08:05:57;3.53;;;3.22;;
16504;SDS011;8365;51.030;4.696;2022-08-01T08:08:27;3.80;;;3.50;;
16504;SDS011;8365;51.030;4.696;2022-08-01T08:10:58;4.47;;;4.10;;
16504;SDS011;8365;51.030;4.696;2022-08-01T08:13:29;4.53;;;4.13;;
16504;SDS011;8365;51.030;4.696;2022-08-01T08:15:59;5.15;;;4.75;;
16504;SDS011;8365;51.030;4.696;2022-08-01T08:18:29;3.80;;;3.40;;
16504;SDS011;8365;51.030;4.696;2022-08-01T08:21:00;6.03;;;5.13;;
16504;SDS011;8365;51.030;4.696;2022-08-01T08:23:30;5.30;;;4.90;;
16504;SDS011;8365;51.030;4.696;2022-08-01T08:26:19;5.38;;;4.97;;
16504;SDS011;8365;51.030;4.696;2022-08-01T08:28:51;5.40;;;4.95;;
16504;SDS011;8365;51.030;4.696;2022-08-01T08:31:21;6.07;;;5.68;;
16504;SDS011;8365;51.030;4.696;2022-08-01T08:33:52;5.43;;;5.10;;
16504;SDS011;8365;51.030;4.696;2022-08-01T08:36:22;4.78;;;4.40;;
16504;SDS011;8365;51.030;4.696;2022-08-01T08:38:53;3.58;;;3.38;;
16504;SDS011;8365;51.030;4.696;2022-08-01T08:41:24;4.10;;;3.70;;
16504;SDS011;8365;51.030;4.696;2022-08-01T08:43:54;3.03;;;2.83;;
16504;SDS011;8365;51.030;4.696;2022-08-01T08:46:27;2.53;;;2.33;;
16504;SDS011;8365;51.030;4.696;2022-08-01T08:48:59;2.70;;;2.50;;
16504;SDS011;8365;51.030;4.696;2022-08-01T08:51:31;1.70;;;1.60;;
16504;SDS011;8365;51.030;4.696;2022-08-01T08:54:07;2.58;;;1.70;;
16504;SDS011;8365;51.030;4.696;2022-08-01T08:56:40;2.95;;;1.80;;
16504;SDS011;8365;51.030;4.696;2022-08-01T08:59:13;1.67;;;1.42;;
16504;SDS011;8365;51.030;4.696;2022-08-01T09:01:43;2.75;;;1.85;;
16504;SDS011;8365;51.030;4.696;2022-08-01T09:04:14;1.90;;;1.67;;
16504;SDS011;8365;51.030;4.696;2022-08-01T09:06:44;2.75;;;1.70;;
16504;SDS011;8365;51.030;4.696;2022-08-01T09:09:15;2.22;;;2.10;;
16504;SDS011;8365;51.030;4.696;2022-08-01T09:11:46;1.88;;;1.77;;
16504;SDS011;8365;51.030;4.696;2022-08-01T09:14:18;2.03;;;1.83;;
16504;SDS011;8365;51.030;4.696;2022-08-01T09:19:38;1.88;;;1.77;;
16504;SDS011;8365;51.030;4.696;2022-08-01T09:22:10;1.98;;;1.77;;
16504;SDS011;8365;51.030;4.696;2022-08-01T09:24:42;3.72;;;1.80;;
16504;SDS011;8365;51.030;4.696;2022-08-01T09:27:29;2.65;;;1.67;;
16504;SDS011;8365;51.030;4.696;2022-08-01T09:30:08;1.50;;;1.40;;
16504;SDS011;8365;51.030;4.696;2022-08-01T09:35:31;1.63;;;1.52;;
16504;SDS011;8365;51.030;4.696;2022-08-01T09:38:25;1.75;;;1.50;;
16504;SDS011;8365;51.030;4.696;2022-08-01T09:40:59;4.53;;;1.63;;
16504;SDS011;8365;51.030;4.696;2022-08-01T09:43:30;1.40;;;1.30;;
16504;SDS011;8365;51.030;4.696;2022-08-01T09:46:10;1.30;;;1.20;;
16504;SDS011;8365;51.030;4.696;2022-08-01T09:51:38;1.60;;;1.50;;
16504;SDS011;8365;51.030;4.696;2022-08-01T09:54:12;1.73;;;1.63;;
16504;SDS011;8365;51.030;4.696;2022-08-01T09:57:15;1.88;;;1.42;;
16504;SDS011;8365;51.030;4.696;2022-08-01T09:59:50;1.50;;;1.40;;
16504;SDS011;8365;51.030;4.696;2022-08-01T10:02:32;3.00;;;1.60;;
16504;SDS011;8365;51.030;4.696;2022-08-01T10:05:06;2.47;;;1.90;;
16504;SDS011;8365;51.030;4.696;2022-08-01T10:10:29;1.63;;;1.52;;
16504;SDS011;8365;51.030;4.696;2022-08-01T10:13:00;1.70;;;1.60;;
16504;SDS011;8365;51.030;4.696;2022-08-01T10:15:31;2.38;;;1.75;;
16504;SDS011;8365;51.030;4.696;2022-08-01T10:18:06;1.70;;;1.60;;
16504;SDS011;8365;51.030;4.696;2022-08-01T10:20:40;1.75;;;1.52;;
16504;SDS011;8365;51.030;4.696;2022-08-01T10:23:12;1.85;;;1.73;;
16504;SDS011;8365;51.030;4.696;2022-08-01T10:25:44;3.15;;;1.80;;
16504;SDS011;8365;51.030;4.696;2022-08-01T10:28:15;2.13;;;1.98;;
16504;SDS011;8365;51.030;4.696;2022-08-01T10:30:48;1.70;;;1.60;;
16504;SDS011;8365;51.030;4.696;2022-08-01T10:33:21;2.70;;;2.20;;
16504;SDS011;8365;51.030;4.696;2022-08-01T10:35:54;4.28;;;1.85;;
16504;SDS011;8365;51.030;4.696;2022-08-01T10:38:25;3.53;;;2.22;;
16504;SDS011;8365;51.030;4.696;2022-08-01T10:40:57;2.45;;;2.20;;
16504;SDS011;8365;51.030;4.696;2022-08-01T10:43:31;2.53;;;2.17;;
16504;SDS011;8365;51.030;4.696;2022-08-01T10:46:04;2.60;;;2.15;;
16504;SDS011;8365;51.030;4.696;2022-08-01T10:48:46;2.72;;;2.53;;
16504;SDS011;8365;51.030;4.696;2022-08-01T10:51:22;3.13;;;2.88;;
16504;SDS011;8365;51.030;4.696;2022-08-01T10:53:53;3.53;;;3.15;;
16504;SDS011;8365;51.030;4.696;2022-08-01T10:56:37;3.67;;;3.08;;
16504;SDS011;8365;51.030;4.696;2022-08-01T10:59:22;3.50;;;3.20;;
16504;SDS011;8365;51.030;4.696;2022-08-01T11:01:56;3.55;;;3.20;;
16504;SDS011;8365;51.030;4.696;2022-08-01T11:07:13;4.03;;;3.72;;
16504;SDS011;8365;51.030;4.696;2022-08-01T11:09:58;4.10;;;3.70;;
16504;SDS011;8365;51.030;4.696;2022-08-01T11:12:38;4.50;;;4.10;;
16504;SDS011;8365;51.030;4.696;2022-08-01T11:17:41;4.50;;;4.20;;
16504;SDS011;8365;51.030;4.696;2022-08-01T11:20:24;5.63;;;4.70;;
16504;SDS011;8365;51.030;4.696;2022-08-01T11:30:47;4.72;;;4.22;;
16504;SDS011;8365;51.030;4.696;2022-08-01T11:38:49;4.72;;;4.32;;
16504;SDS011;8365;51.030;4.696;2022-08-01T11:41:43;4.72;;;4.22;;
16504;SDS011;8365;51.030;4.696;2022-08-01T11:44:17;4.50;;;4.13;;
16504;SDS011;8365;51.030;4.696;2022-08-01T11:46:59;4.30;;;4.00;;
16504;SDS011;8365;51.030;4.696;2022-08-01T11:52:08;4.50;;;4.05;;
16504;SDS011;8365;51.030;4.696;2022-08-01T11:54:41;4.97;;;4.10;;
16504;SDS011;8365;51.030;4.696;2022-08-01T11:57:20;4.53;;;3.63;;
16504;SDS011;8365;51.030;4.696;2022-08-01T11:59:55;3.92;;;3.60;;
16504;SDS011;8365;51.030;4.696;2022-08-01T12:02:28;3.17;;;2.92;;
16504;SDS011;8365;51.030;4.696;2022-08-01T12:07:32;4.28;;;3.15;;
16504;SDS011;8365;51.030;4.696;2022-08-01T12:10:10;2.67;;;2.47;;
16504;SDS011;8365;51.030;4.696;2022-08-01T12:15:16;4.20;;;2.90;;
16504;SDS011;8365;51.030;4.696;2022-08-01T12:17:55;3.63;;;2.63;;
16504;SDS011;8365;51.030;4.696;2022-08-01T12:20:31;2.70;;;2.50;;
16504;SDS011;8365;51.030;4.696;2022-08-01T12:23:03;3.17;;;2.83;;
16504;SDS011;8365;51.030;4.696;2022-08-01T12:25:37;2.75;;;2.40;;
16504;SDS011;8365;51.030;4.696;2022-08-01T12:28:13;3.75;;;2.55;;
16504;SDS011;8365;51.030;4.696;2022-08-01T12:30:46;4.07;;;2.83;;
16504;SDS011;8365;51.030;4.696;2022-08-01T12:33:19;3.33;;;2.42;;
16504;SDS011;8365;51.030;4.696;2022-08-01T12:35:50;2.80;;;2.60;;
16504;SDS011;8365;51.030;4.696;2022-08-01T12:38:22;4.78;;;3.33;;
16504;SDS011;8365;51.030;4.696;2022-08-01T12:40:54;2.90;;;2.70;;
16504;SDS011;8365;51.030;4.696;2022-08-01T12:43:25;3.75;;;2.88;;
16504;SDS011;8365;51.030;4.696;2022-08-01T12:45:57;3.65;;;3.03;;
16504;SDS011;8365;51.030;4.696;2022-08-01T12:48:30;2.83;;;2.63;;
16504;SDS011;8365;51.030;4.696;2022-08-01T12:51:02;3.10;;;2.80;;
16504;SDS011;8365;51.030;4.696;2022-08-01T12:53:33;2.75;;;2.28;;
16504;SDS011;8365;51.030;4.696;2022-08-01T12:56:04;2.40;;;2.10;;
16504;SDS011;8365;51.030;4.696;2022-08-01T12:58:35;3.15;;;2.20;;
16504;SDS011;8365;51.030;4.696;2022-08-01T13:01:09;2.50;;;2.13;;
16504;SDS011;8365;51.030;4.696;2022-08-01T13:03:41;2.97;;;2.00;;
16504;SDS011;8365;51.030;4.696;2022-08-01T13:06:28;3.53;;;1.90;;
16504;SDS011;8365;51.030;4.696;2022-08-01T13:09:06;4.45;;;2.17;;
16504;SDS011;8365;51.030;4.696;2022-08-01T13:11:41;3.08;;;2.05;;
16504;SDS011;8365;51.030;4.696;2022-08-01T13:14:28;3.00;;;2.08;;
16504;SDS011;8365;51.030;4.696;2022-08-01T13:16:59;3.10;;;2.10;;
16504;SDS011;8365;51.030;4.696;2022-08-01T13:19:45;3.85;;;1.90;;
16504;SDS011;8365;51.030;4.696;2022-08-01T13:22:17;1.70;;;1.60;;
16504;SDS011;8365;51.030;4.696;2022-08-01T13:24:48;1.92;;;1.73;;
16504;SDS011;8365;51.030;4.696;2022-08-01T13:27:21;3.25;;;2.13;;
16504;SDS011;8365;51.030;4.696;2022-08-01T13:29:53;4.30;;;2.00;;
16504;SDS011;8365;51.030;4.696;2022-08-01T13:32:58;5.22;;;2.35;;
16504;SDS011;8365;51.030;4.696;2022-08-01T13:35:29;2.35;;;2.00;;
16504;SDS011;8365;51.030;4.696;2022-08-01T13:37:59;2.22;;;2.03;;
16504;SDS011;8365;51.030;4.696;2022-08-01T13:40:30;3.45;;;2.50;;
16504;SDS011;8365;51.030;4.696;2022-08-01T13:43:00;4.22;;;2.47;;
16504;SDS011;8365;51.030;4.696;2022-08-01T13:45:31;3.90;;;2.50;;
16504;SDS011;8365;51.030;4.696;2022-08-01T13:48:01;4.35;;;2.15;;
16504;SDS011;8365;51.030;4.696;2022-08-01T13:50:32;1.85;;;1.73;;
16504;SDS011;8365;51.030;4.696;2022-08-01T13:53:03;1.85;;;1.73;;
16504;SDS011;8365;51.030;4.696;2022-08-01T13:55:33;2.30;;;1.67;;
16504;SDS011;8365;51.030;4.696;2022-08-01T13:58:04;2.25;;;1.83;;
16504;SDS011;8365;51.030;4.696;2022-08-01T14:00:35;2.53;;;2.03;;
16504;SDS011;8365;51.030;4.696;2022-08-01T14:03:05;2.13;;;1.70;;
16504;SDS011;8365;51.030;4.696;2022-08-01T14:05:36;2.00;;;1.90;;
16504;SDS011;8365;51.030;4.696;2022-08-01T14:08:06;2.17;;;1.70;;
16504;SDS011;8365;51.030;4.696;2022-08-01T14:10:37;1.98;;;1.67;;
16504;SDS011;8365;51.030;4.696;2022-08-01T14:13:08;2.25;;;1.98;;
16504;SDS011;8365;51.030;4.696;2022-08-01T14:15:38;2.83;;;1.95;;
16504;SDS011;8365;51.030;4.696;2022-08-01T14:18:09;2.78;;;1.77;;
16504;SDS011;8365;51.030;4.696;2022-08-01T14:20:42;2.13;;;1.90;;
16504;SDS011;8365;51.030;4.696;2022-08-01T14:23:12;2.30;;;1.80;;
16504;SDS011;8365;51.030;4.696;2022-08-01T14:25:43;3.70;;;2.03;;
16504;SDS011;8365;51.030;4.696;2022-08-01T14:28:14;2.60;;;1.83;;
16504;SDS011;8365;51.030;4.696;2022-08-01T14:30:44;3.35;;;1.90;;
16504;SDS011;8365;51.030;4.696;2022-08-01T14:33:15;2.40;;;1.90;;
16504;SDS011;8365;51.030;4.696;2022-08-01T14:35:45;2.20;;;1.63;;
16504;SDS011;8365;51.030;4.696;2022-08-01T14:38:16;1.63;;;1.40;;
16504;SDS011;8365;51.030;4.696;2022-08-01T14:40:49;3.05;;;1.30;;
16504;SDS011;8365;51.030;4.696;2022-08-01T14:43:23;3.17;;;1.90;;
16504;SDS011;8365;51.030;4.696;2022-08-01T14:45:53;2.83;;;1.67;;
16504;SDS011;8365;51.030;4.696;2022-08-01T14:48:24;3.10;;;1.52;;
16504;SDS011;8365;51.030;4.696;2022-08-01T14:50:57;2.15;;;1.55;;
16504;SDS011;8365;51.030;4.696;2022-08-01T14:53:32;2.63;;;1.65;;
16504;SDS011;8365;51.030;4.696;2022-08-01T14:56:03;1.92;;;1.60;;
16504;SDS011;8365;51.030;4.696;2022-08-01T14:58:37;1.73;;;1.60;;
16504;SDS011;8365;51.030;4.696;2022-08-01T15:01:07;2.28;;;1.50;;
16504;SDS011;8365;51.030;4.696;2022-08-01T15:03:38;1.58;;;1.48;;
16504;SDS011;8365;51.030;4.696;2022-08-01T15:06:08;3.38;;;1.85;;
16504;SDS011;8365;51.030;4.696;2022-08-01T15:08:41;2.30;;;1.63;;
16504;SDS011;8365;51.030;4.696;2022-08-01T15:11:11;4.00;;;1.88;;
16504;SDS011;8365;51.030;4.696;2022-08-01T15:13:42;3.60;;;1.95;;
16504;SDS011;8365;51.030;4.696;2022-08-01T15:16:12;2.05;;;1.50;;
16504;SDS011;8365;51.030;4.696;2022-08-01T15:18:45;2.28;;;1.83;;
16504;SDS011;8365;51.030;4.696;2022-08-01T15:21:15;2.10;;;1.90;;
16504;SDS011;8365;51.030;4.696;2022-08-01T15:23:47;2.97;;;1.83;;
16504;SDS011;8365;51.030;4.696;2022-08-01T15:26:18;3.50;;;1.80;;
16504;SDS011;8365;51.030;4.696;2022-08-01T15:28:48;2.00;;;1.70;;
16504;SDS011;8365;51.030;4.696;2022-08-01T15:31:18;4.72;;;2.00;;
16504;SDS011;8365;51.030;4.696;2022-08-01T15:33:49;2.58;;;1.88;;
16504;SDS011;8365;51.030;4.696;2022-08-01T15:36:19;4.05;;;2.10;;
16504;SDS011;8365;51.030;4.696;2022-08-01T15:38:50;3.38;;;1.80;;
16504;SDS011;8365;51.030;4.696;2022-08-01T15:41:20;4.57;;;2.38;;
16504;SDS011;8365;51.030;4.696;2022-08-01T15:43:51;2.40;;;2.00;;
16504;SDS011;8365;51.030;4.696;2022-08-01T15:46:24;2.53;;;2.03;;
16504;SDS011;8365;51.030;4.696;2022-08-01T15:48:54;2.20;;;2.00;;
16504;SDS011;8365;51.030;4.696;2022-08-01T15:51:24;4.75;;;1.90;;
16504;SDS011;8365;51.030;4.696;2022-08-01T15:53:55;2.80;;;2.05;;
16504;SDS011;8365;51.030;4.696;2022-08-01T15:56:26;2.13;;;1.92;;
16504;SDS011;8365;51.030;4.696;2022-08-01T15:58:57;3.83;;;1.85;;
16504;SDS011;8365;51.030;4.696;2022-08-01T16:01:27;3.35;;;2.00;;
16504;SDS011;8365;51.030;4.696;2022-08-01T16:03:58;3.00;;;2.08;;
16504;SDS011;8365;51.030;4.696;2022-08-01T16:06:29;2.00;;;1.70;;
16504;SDS011;8365;51.030;4.696;2022-08-01T16:08:59;4.00;;;1.90;;
16504;SDS011;8365;51.030;4.696;2022-08-01T16:11:30;4.78;;;1.90;;
16504;SDS011;8365;51.030;4.696;2022-08-01T16:14:01;2.55;;;1.98;;
16504;SDS011;8365;51.030;4.696;2022-08-01T16:16:32;5.15;;;1.80;;
16504;SDS011;8365;51.030;4.696;2022-08-01T16:19:02;3.55;;;1.70;;
16504;SDS011;8365;51.030;4.696;2022-08-01T16:21:35;3.58;;;1.70;;
16504;SDS011;8365;51.030;4.696;2022-08-01T16:24:06;3.28;;;2.10;;